sensor_id;sensor_type;location;lat;lon;timestamp;temperature;humidity
4584;DHT22;2304;47.606;12.186;2022-12-10T00:01:40;3.10;76.30
4584;DHT22;2304;47.606;12.186;2022-12-10T00:06:42;3.10;76.20
4584;DHT22;2304;47.606;12.186;2022-12-10T00:11:45;3.10;76.70
4584;DHT22;2304;47.606;12.186;2022-12-10T00:16:47;3.00;77.00
4584;DHT22;2304;47.606;12.186;2022-12-10T00:21:49;3.10;77.10
4584;DHT22;2304;47.606;12.186;2022-12-10T00:26:52;3.10;77.50
4584;DHT22;2304;47.606;12.186;2022-12-10T00:31:54;3.10;77.60
4584;DHT22;2304;47.606;12.186;2022-12-10T00:36:56;3.20;77.10
4584;DHT22;2304;47.606;12.186;2022-12-10T00:41:59;3.20;77.40
4584;DHT22;2304;47.606;12.186;2022-12-10T00:47:01;3.10;77.80
4584;DHT22;2304;47.606;12.186;2022-12-10T00:52:03;3.20;77.90
4584;DHT22;2304;47.606;12.186;2022-12-10T00:57:06;3.20;77.90
4584;DHT22;2304;47.606;12.186;2022-12-10T01:02:08;3.20;77.50
4584;DHT22;2304;47.606;12.186;2022-12-10T01:07:09;3.10;77.40
4584;DHT22;2304;47.606;12.186;2022-12-10T01:12:13;3.20;77.80
4584;DHT22;2304;47.606;12.186;2022-12-10T01:17:14;3.20;77.80
4584;DHT22;2304;47.606;12.186;2022-12-10T01:22:16;3.20;77.90
4584;DHT22;2304;47.606;12.186;2022-12-10T01:27:20;3.30;77.50
4584;DHT22;2304;47.606;12.186;2022-12-10T01:32:21;3.30;76.50
4584;DHT22;2304;47.606;12.186;2022-12-10T01:37:23;2.90;76.80
4584;DHT22;2304;47.606;12.186;2022-12-10T01:42:27;3.20;77.30
4584;DHT22;2304;47.606;12.186;2022-12-10T01:47:28;3.20;77.50
4584;DHT22;2304;47.606;12.186;2022-12-10T01:52:30;3.10;77.50
4584;DHT22;2304;47.606;12.186;2022-12-10T01:57:33;3.10;77.30
4584;DHT22;2304;47.606;12.186;2022-12-10T02:02:40;3.10;77.40
4584;DHT22;2304;47.606;12.186;2022-12-10T02:07:54;3.20;77.20
4584;DHT22;2304;47.606;12.186;2022-12-10T02:13:05;3.20;78.10
4584;DHT22;2304;47.606;12.186;2022-12-10T02:18:09;3.20;78.20
4584;DHT22;2304;47.606;12.186;2022-12-10T02:23:16;3.10;78.00
4584;DHT22;2304;47.606;12.186;2022-12-10T02:28:25;3.20;77.80
4584;DHT22;2304;47.606;12.186;2022-12-10T02:33:36;3.20;77.00
4584;DHT22;2304;47.606;12.186;2022-12-10T02:38:40;3.20;77.50
4584;DHT22;2304;47.606;12.186;2022-12-10T02:43:43;3.30;77.60
4584;DHT22;2304;47.606;12.186;2022-12-10T02:48:50;3.30;77.00
4584;DHT22;2304;47.606;12.186;2022-12-10T02:53:58;3.20;76.60
4584;DHT22;2304;47.606;12.186;2022-12-10T02:59:08;3.20;76.60
4584;DHT22;2304;47.606;12.186;2022-12-10T03:04:23;3.30;77.20
4584;DHT22;2304;47.606;12.186;2022-12-10T03:09:29;3.30;76.90
4584;DHT22;2304;47.606;12.186;2022-12-10T03:14:33;3.30;77.10
4584;DHT22;2304;47.606;12.186;2022-12-10T03:19:39;3.20;76.90
4584;DHT22;2304;47.606;12.186;2022-12-10T03:24:43;3.20;76.60
4584;DHT22;2304;47.606;12.186;2022-12-10T03:29:47;3.20;77.10
4584;DHT22;2304;47.606;12.186;2022-12-10T03:34:51;3.20;76.60
4584;DHT22;2304;47.606;12.186;2022-12-10T03:39:55;3.20;76.60
4584;DHT22;2304;47.606;12.186;2022-12-10T03:44:57;3.20;76.80
4584;DHT22;2304;47.606;12.186;2022-12-10T03:50:00;3.20;76.70
4584;DHT22;2304;47.606;12.186;2022-12-10T03:55:02;3.20;77.10
4584;DHT22;2304;47.606;12.186;2022-12-10T04:00:06;3.30;77.10
4584;DHT22;2304;47.606;12.186;2022-12-10T04:05:10;3.20;77.50
4584;DHT22;2304;47.606;12.186;2022-12-10T04:10:12;3.20;77.90
4584;DHT22;2304;47.606;12.186;2022-12-10T04:15:14;3.20;77.80
4584;DHT22;2304;47.606;12.186;2022-12-10T04:20:46;3.20;78.30
4584;DHT22;2304;47.606;12.186;2022-12-10T04:26:17;3.20;78.40
4584;DHT22;2304;47.606;12.186;2022-12-10T04:31:37;3.20;78.40
4584;DHT22;2304;47.606;12.186;2022-12-10T04:36:40;3.20;78.50
4584;DHT22;2304;47.606;12.186;2022-12-10T04:41:45;3.20;78.80
4584;DHT22;2304;47.606;12.186;2022-12-10T04:46:48;3.30;78.60
4584;DHT22;2304;47.606;12.186;2022-12-10T04:51:52;3.20;78.50
4584;DHT22;2304;47.606;12.186;2022-12-10T04:56:54;3.20;78.40
4584;DHT22;2304;47.606;12.186;2022-12-10T05:01:56;3.20;78.40
4584;DHT22;2304;47.606;12.186;2022-12-10T05:07:00;3.10;78.80
4584;DHT22;2304;47.606;12.186;2022-12-10T05:12:01;3.10;78.80
4584;DHT22;2304;47.606;12.186;2022-12-10T05:17:03;3.20;79.10
4584;DHT22;2304;47.606;12.186;2022-12-10T05:22:07;3.20;78.90
4584;DHT22;2304;47.606;12.186;2022-12-10T05:27:31;3.20;79.10
4584;DHT22;2304;47.606;12.186;2022-12-10T05:32:33;3.20;79.00
4584;DHT22;2304;47.606;12.186;2022-12-10T05:37:36;3.20;78.60
4584;DHT22;2304;47.606;12.186;2022-12-10T05:42:38;3.20;78.40
4584;DHT22;2304;47.606;12.186;2022-12-10T05:47:40;3.20;78.80
4584;DHT22;2304;47.606;12.186;2022-12-10T05:52:43;3.20;79.00
4584;DHT22;2304;47.606;12.186;2022-12-10T05:57:45;3.20;79.10
4584;DHT22;2304;47.606;12.186;2022-12-10T06:02:47;3.20;79.60
4584;DHT22;2304;47.606;12.186;2022-12-10T06:07:50;3.20;78.90
4584;DHT22;2304;47.606;12.186;2022-12-10T06:12:52;3.20;78.40
4584;DHT22;2304;47.606;12.186;2022-12-10T06:17:54;3.20;78.50
4584;DHT22;2304;47.606;12.186;2022-12-10T06:22:57;3.20;78.90
4584;DHT22;2304;47.606;12.186;2022-12-10T06:27:59;3.20;78.60
4584;DHT22;2304;47.606;12.186;2022-12-10T06:33:01;3.20;78.70
4584;DHT22;2304;47.606;12.186;2022-12-10T06:38:04;3.30;78.70
4584;DHT22;2304;47.606;12.186;2022-12-10T06:43:06;3.30;78.30
4584;DHT22;2304;47.606;12.186;2022-12-10T06:48:08;3.30;78.60
4584;DHT22;2304;47.606;12.186;2022-12-10T06:53:12;3.30;78.90
4584;DHT22;2304;47.606;12.186;2022-12-10T06:58:14;3.30;78.50
4584;DHT22;2304;47.606;12.186;2022-12-10T07:03:16;3.30;78.30
4584;DHT22;2304;47.606;12.186;2022-12-10T07:08:19;3.30;78.40
4584;DHT22;2304;47.606;12.186;2022-12-10T07:13:21;3.30;78.10
4584;DHT22;2304;47.606;12.186;2022-12-10T07:18:23;3.10;78.00
4584;DHT22;2304;47.606;12.186;2022-12-10T07:23:26;3.30;78.80
4584;DHT22;2304;47.606;12.186;2022-12-10T07:28:28;3.30;77.80
4584;DHT22;2304;47.606;12.186;2022-12-10T07:33:30;3.40;78.00
4584;DHT22;2304;47.606;12.186;2022-12-10T07:38:34;3.40;77.60
4584;DHT22;2304;47.606;12.186;2022-12-10T07:43:37;3.40;77.50
4584;DHT22;2304;47.606;12.186;2022-12-10T07:48:41;3.50;77.70
4584;DHT22;2304;47.606;12.186;2022-12-10T07:53:45;3.50;77.70
4584;DHT22;2304;47.606;12.186;2022-12-10T07:58:47;3.50;77.20
4584;DHT22;2304;47.606;12.186;2022-12-10T08:03:49;3.50;77.10
4584;DHT22;2304;47.606;12.186;2022-12-10T08:08:52;3.60;76.70
4584;DHT22;2304;47.606;12.186;2022-12-10T08:13:54;3.70;76.80
4584;DHT22;2304;47.606;12.186;2022-12-10T08:18:58;3.50;76.80
4584;DHT22;2304;47.606;12.186;2022-12-10T08:24:01;3.50;77.00
4584;DHT22;2304;47.606;12.186;2022-12-10T08:29:03;3.50;76.80
4584;DHT22;2304;47.606;12.186;2022-12-10T08:34:11;3.50;77.00
4584;DHT22;2304;47.606;12.186;2022-12-10T08:39:15;3.60;76.70
4584;DHT22;2304;47.606;12.186;2022-12-10T08:44:17;3.60;76.60
4584;DHT22;2304;47.606;12.186;2022-12-10T08:49:19;3.60;76.50
4584;DHT22;2304;47.606;12.186;2022-12-10T08:54:22;3.60;77.50
4584;DHT22;2304;47.606;12.186;2022-12-10T08:59:24;3.60;76.20
4584;DHT22;2304;47.606;12.186;2022-12-10T09:04:25;3.70;76.30
4584;DHT22;2304;47.606;12.186;2022-12-10T09:09:29;3.70;76.40
4584;DHT22;2304;47.606;12.186;2022-12-10T09:14:30;3.80;76.50
4584;DHT22;2304;47.606;12.186;2022-12-10T09:19:33;3.80;76.10
4584;DHT22;2304;47.606;12.186;2022-12-10T09:24:36;3.90;75.70
4584;DHT22;2304;47.606;12.186;2022-12-10T09:29:38;4.00;75.40
4584;DHT22;2304;47.606;12.186;2022-12-10T09:34:40;4.20;74.90
4584;DHT22;2304;47.606;12.186;2022-12-10T09:39:43;4.10;74.60
4584;DHT22;2304;47.606;12.186;2022-12-10T09:44:53;4.00;74.60
4584;DHT22;2304;47.606;12.186;2022-12-10T09:50:03;4.00;74.80
4584;DHT22;2304;47.606;12.186;2022-12-10T09:55:13;4.00;74.80
4584;DHT22;2304;47.606;12.186;2022-12-10T10:00:21;4.30;75.00
4584;DHT22;2304;47.606;12.186;2022-12-10T10:05:26;4.00;74.60
4584;DHT22;2304;47.606;12.186;2022-12-10T10:10:32;4.00;75.10
4584;DHT22;2304;47.606;12.186;2022-12-10T10:15:35;4.00;75.30
4584;DHT22;2304;47.606;12.186;2022-12-10T10:20:38;4.00;75.20
4584;DHT22;2304;47.606;12.186;2022-12-10T10:25:41;4.00;75.20
4584;DHT22;2304;47.606;12.186;2022-12-10T10:30:43;3.90;75.00
4584;DHT22;2304;47.606;12.186;2022-12-10T10:35:48;4.10;75.20
4584;DHT22;2304;47.606;12.186;2022-12-10T10:40:53;3.80;75.30
4584;DHT22;2304;47.606;12.186;2022-12-10T10:45:58;3.80;75.50
4584;DHT22;2304;47.606;12.186;2022-12-10T10:51:07;3.80;76.00
4584;DHT22;2304;47.606;12.186;2022-12-10T10:56:12;3.80;76.10
4584;DHT22;2304;47.606;12.186;2022-12-10T11:01:17;3.80;76.10
4584;DHT22;2304;47.606;12.186;2022-12-10T11:06:21;3.70;76.30
4584;DHT22;2304;47.606;12.186;2022-12-10T11:11:31;3.70;76.50
4584;DHT22;2304;47.606;12.186;2022-12-10T11:16:33;4.00;76.80
4584;DHT22;2304;47.606;12.186;2022-12-10T11:21:35;3.80;76.80
4584;DHT22;2304;47.606;12.186;2022-12-10T11:26:52;3.80;76.70
4584;DHT22;2304;47.606;12.186;2022-12-10T11:32:12;3.80;76.50
4584;DHT22;2304;47.606;12.186;2022-12-10T11:37:22;3.90;76.60
4584;DHT22;2304;47.606;12.186;2022-12-10T11:42:36;3.80;76.30
4584;DHT22;2304;47.606;12.186;2022-12-10T11:47:46;3.70;76.40
4584;DHT22;2304;47.606;12.186;2022-12-10T11:53:02;3.70;76.70
4584;DHT22;2304;47.606;12.186;2022-12-10T11:58:19;3.80;76.80
4584;DHT22;2304;47.606;12.186;2022-12-10T12:03:38;3.80;76.60
4584;DHT22;2304;47.606;12.186;2022-12-10T12:08:51;3.70;76.70
4584;DHT22;2304;47.606;12.186;2022-12-10T12:14:00;3.80;76.70
4584;DHT22;2304;47.606;12.186;2022-12-10T12:19:11;3.70;76.60
4584;DHT22;2304;47.606;12.186;2022-12-10T12:24:17;3.70;76.80
4584;DHT22;2304;47.606;12.186;2022-12-10T12:29:27;3.70;76.90
4584;DHT22;2304;47.606;12.186;2022-12-10T12:34:39;3.80;76.90
4584;DHT22;2304;47.606;12.186;2022-12-10T12:39:48;3.80;76.90
4584;DHT22;2304;47.606;12.186;2022-12-10T12:44:59;3.80;76.80
4584;DHT22;2304;47.606;12.186;2022-12-10T12:50:10;3.70;77.20
4584;DHT22;2304;47.606;12.186;2022-12-10T12:55:17;3.70;77.00
4584;DHT22;2304;47.606;12.186;2022-12-10T13:00:23;3.60;76.70
4584;DHT22;2304;47.606;12.186;2022-12-10T13:05:27;3.60;76.70
4584;DHT22;2304;47.606;12.186;2022-12-10T13:10:44;3.60;77.30
4584;DHT22;2304;47.606;12.186;2022-12-10T13:15:47;3.60;77.40
4584;DHT22;2304;47.606;12.186;2022-12-10T13:20:50;3.50;77.20
4584;DHT22;2304;47.606;12.186;2022-12-10T13:25:58;3.50;77.70
4584;DHT22;2304;47.606;12.186;2022-12-10T13:31:32;3.50;78.00
4584;DHT22;2304;47.606;12.186;2022-12-10T13:37:04;3.50;78.20
4584;DHT22;2304;47.606;12.186;2022-12-10T13:42:26;3.50;78.30
4584;DHT22;2304;47.606;12.186;2022-12-10T13:47:48;3.40;78.30
4584;DHT22;2304;47.606;12.186;2022-12-10T13:52:59;3.40;78.60
4584;DHT22;2304;47.606;12.186;2022-12-10T13:58:23;3.30;78.70
4584;DHT22;2304;47.606;12.186;2022-12-10T14:03:52;3.40;79.50
4584;DHT22;2304;47.606;12.186;2022-12-10T14:09:02;3.30;79.50
4584;DHT22;2304;47.606;12.186;2022-12-10T14:14:09;3.30;79.70
4584;DHT22;2304;47.606;12.186;2022-12-10T14:19:16;3.20;79.80
4584;DHT22;2304;47.606;12.186;2022-12-10T14:24:30;3.20;80.20
4584;DHT22;2304;47.606;12.186;2022-12-10T14:29:33;3.20;80.30
4584;DHT22;2304;47.606;12.186;2022-12-10T14:34:36;3.20;80.60
4584;DHT22;2304;47.606;12.186;2022-12-10T14:39:38;3.20;81.00
4584;DHT22;2304;47.606;12.186;2022-12-10T14:44:41;3.20;80.80
4584;DHT22;2304;47.606;12.186;2022-12-10T14:49:46;3.20;80.90
4584;DHT22;2304;47.606;12.186;2022-12-10T14:54:50;3.10;80.90
4584;DHT22;2304;47.606;12.186;2022-12-10T14:59:59;3.10;80.90
4584;DHT22;2304;47.606;12.186;2022-12-10T15:05:10;3.20;81.00
4584;DHT22;2304;47.606;12.186;2022-12-10T15:10:17;3.10;80.40
4584;DHT22;2304;47.606;12.186;2022-12-10T15:15:23;3.40;80.70
4584;DHT22;2304;47.606;12.186;2022-12-10T15:20:30;3.20;80.80
4584;DHT22;2304;47.606;12.186;2022-12-10T15:25:42;3.10;80.20
4584;DHT22;2304;47.606;12.186;2022-12-10T15:30:45;3.10;80.50
4584;DHT22;2304;47.606;12.186;2022-12-10T15:35:56;3.20;80.50
4584;DHT22;2304;47.606;12.186;2022-12-10T15:41:20;3.20;80.10
4584;DHT22;2304;47.606;12.186;2022-12-10T15:46:23;3.10;79.90
4584;DHT22;2304;47.606;12.186;2022-12-10T15:51:26;3.10;80.20
4584;DHT22;2304;47.606;12.186;2022-12-10T15:56:28;3.20;80.00
4584;DHT22;2304;47.606;12.186;2022-12-10T16:01:30;3.20;80.00
4584;DHT22;2304;47.606;12.186;2022-12-10T16:06:33;3.20;80.30
4584;DHT22;2304;47.606;12.186;2022-12-10T16:11:35;3.20;79.60
4584;DHT22;2304;47.606;12.186;2022-12-10T16:16:37;3.10;79.70
4584;DHT22;2304;47.606;12.186;2022-12-10T16:21:41;3.10;80.30
4584;DHT22;2304;47.606;12.186;2022-12-10T16:26:43;3.00;80.10
4584;DHT22;2304;47.606;12.186;2022-12-10T16:31:46;3.10;80.70
4584;DHT22;2304;47.606;12.186;2022-12-10T16:36:51;3.10;81.10
4584;DHT22;2304;47.606;12.186;2022-12-10T16:41:53;3.10;80.20
4584;DHT22;2304;47.606;12.186;2022-12-10T16:46:55;3.20;80.30
4584;DHT22;2304;47.606;12.186;2022-12-10T16:51:58;3.10;79.50
4584;DHT22;2304;47.606;12.186;2022-12-10T16:57:01;3.10;80.00
4584;DHT22;2304;47.606;12.186;2022-12-10T17:02:05;3.20;79.90
4584;DHT22;2304;47.606;12.186;2022-12-10T17:07:09;3.20;79.90
4584;DHT22;2304;47.606;12.186;2022-12-10T17:12:11;3.20;80.00
4584;DHT22;2304;47.606;12.186;2022-12-10T17:17:14;3.20;79.60
4584;DHT22;2304;47.606;12.186;2022-12-10T17:22:18;3.20;79.70
4584;DHT22;2304;47.606;12.186;2022-12-10T17:27:20;3.20;79.60
4584;DHT22;2304;47.606;12.186;2022-12-10T17:32:22;3.10;79.40
4584;DHT22;2304;47.606;12.186;2022-12-10T17:37:28;3.10;79.50
4584;DHT22;2304;47.606;12.186;2022-12-10T17:42:32;3.00;79.70
4584;DHT22;2304;47.606;12.186;2022-12-10T17:47:34;3.00;80.40
4584;DHT22;2304;47.606;12.186;2022-12-10T17:52:37;2.90;80.40
4584;DHT22;2304;47.606;12.186;2022-12-10T17:57:39;2.90;80.80
4584;DHT22;2304;47.606;12.186;2022-12-10T18:02:41;2.90;80.90
4584;DHT22;2304;47.606;12.186;2022-12-10T18:07:45;3.10;80.40
4584;DHT22;2304;47.606;12.186;2022-12-10T18:12:47;2.80;79.60
4584;DHT22;2304;47.606;12.186;2022-12-10T18:17:50;2.80;79.50
4584;DHT22;2304;47.606;12.186;2022-12-10T18:22:54;2.80;78.90
4584;DHT22;2304;47.606;12.186;2022-12-10T18:28:01;2.80;78.60
4584;DHT22;2304;47.606;12.186;2022-12-10T18:33:04;2.90;78.70
4584;DHT22;2304;47.606;12.186;2022-12-10T18:38:09;2.80;78.10
4584;DHT22;2304;47.606;12.186;2022-12-10T18:43:12;2.80;78.20
4584;DHT22;2304;47.606;12.186;2022-12-10T18:48:15;2.80;78.80
4584;DHT22;2304;47.606;12.186;2022-12-10T18:53:18;2.80;79.20
4584;DHT22;2304;47.606;12.186;2022-12-10T18:58:20;2.80;79.40
4584;DHT22;2304;47.606;12.186;2022-12-10T19:03:22;2.80;79.40
4584;DHT22;2304;47.606;12.186;2022-12-10T19:08:25;2.80;79.40
4584;DHT22;2304;47.606;12.186;2022-12-10T19:13:29;2.80;79.30
4584;DHT22;2304;47.606;12.186;2022-12-10T19:18:31;2.80;79.20
4584;DHT22;2304;47.606;12.186;2022-12-10T19:23:34;2.80;79.40
4584;DHT22;2304;47.606;12.186;2022-12-10T19:28:36;2.80;79.20
4584;DHT22;2304;47.606;12.186;2022-12-10T19:33:38;2.90;79.40
4584;DHT22;2304;47.606;12.186;2022-12-10T19:38:41;2.70;79.50
4584;DHT22;2304;47.606;12.186;2022-12-10T19:43:44;2.70;79.90
4584;DHT22;2304;47.606;12.186;2022-12-10T19:48:46;2.80;79.90
4584;DHT22;2304;47.606;12.186;2022-12-10T19:53:49;2.70;80.60
4584;DHT22;2304;47.606;12.186;2022-12-10T19:58:53;2.70;79.40
4584;DHT22;2304;47.606;12.186;2022-12-10T20:03:56;2.70;79.50
4584;DHT22;2304;47.606;12.186;2022-12-10T20:09:01;2.70;79.40
4584;DHT22;2304;47.606;12.186;2022-12-10T20:14:03;2.60;78.00
4584;DHT22;2304;47.606;12.186;2022-12-10T20:19:05;2.60;77.70
4584;DHT22;2304;47.606;12.186;2022-12-10T20:24:09;2.60;77.40
4584;DHT22;2304;47.606;12.186;2022-12-10T20:29:14;2.60;76.90
4584;DHT22;2304;47.606;12.186;2022-12-10T20:34:16;2.60;77.00
4584;DHT22;2304;47.606;12.186;2022-12-10T20:39:23;2.60;76.90
4584;DHT22;2304;47.606;12.186;2022-12-10T20:44:26;2.50;76.50
4584;DHT22;2304;47.606;12.186;2022-12-10T20:49:28;2.50;76.70
4584;DHT22;2304;47.606;12.186;2022-12-10T20:54:31;2.40;76.80
4584;DHT22;2304;47.606;12.186;2022-12-10T20:59:33;2.40;76.80
4584;DHT22;2304;47.606;12.186;2022-12-10T21:04:35;2.40;77.20
4584;DHT22;2304;47.606;12.186;2022-12-10T21:09:39;2.50;77.00
4584;DHT22;2304;47.606;12.186;2022-12-10T21:14:40;2.40;75.90
4584;DHT22;2304;47.606;12.186;2022-12-10T21:19:42;2.40;75.80
4584;DHT22;2304;47.606;12.186;2022-12-10T21:24:46;2.40;75.60
4584;DHT22;2304;47.606;12.186;2022-12-10T21:29:48;2.30;75.30
4584;DHT22;2304;47.606;12.186;2022-12-10T21:34:49;2.40;75.30
4584;DHT22;2304;47.606;12.186;2022-12-10T21:39:53;2.30;75.10
4584;DHT22;2304;47.606;12.186;2022-12-10T21:44:57;2.30;74.70
4584;DHT22;2304;47.606;12.186;2022-12-10T21:49:59;2.30;74.50
4584;DHT22;2304;47.606;12.186;2022-12-10T21:55:03;2.30;74.50
4584;DHT22;2304;47.606;12.186;2022-12-10T22:00:07;2.30;74.70
4584;DHT22;2304;47.606;12.186;2022-12-10T22:05:11;2.20;74.20
4584;DHT22;2304;47.606;12.186;2022-12-10T22:10:14;2.20;74.20
4584;DHT22;2304;47.606;12.186;2022-12-10T22:15:16;2.20;74.20
4584;DHT22;2304;47.606;12.186;2022-12-10T22:20:19;2.10;74.20
4584;DHT22;2304;47.606;12.186;2022-12-10T22:25:22;2.10;74.50
4584;DHT22;2304;47.606;12.186;2022-12-10T22:30:24;2.10;75.10
4584;DHT22;2304;47.606;12.186;2022-12-10T22:35:26;2.10;75.20
4584;DHT22;2304;47.606;12.186;2022-12-10T22:40:29;2.10;75.70
4584;DHT22;2304;47.606;12.186;2022-12-10T22:45:31;2.20;75.80
4584;DHT22;2304;47.606;12.186;2022-12-10T22:50:35;2.30;75.70
4584;DHT22;2304;47.606;12.186;2022-12-10T22:55:38;2.30;75.90
4584;DHT22;2304;47.606;12.186;2022-12-10T23:00:40;2.30;75.30
4584;DHT22;2304;47.606;12.186;2022-12-10T23:05:42;2.30;74.50
4584;DHT22;2304;47.606;12.186;2022-12-10T23:10:46;2.30;74.40
4584;DHT22;2304;47.606;12.186;2022-12-10T23:15:49;2.30;74.10
4584;DHT22;2304;47.606;12.186;2022-12-10T23:20:51;2.40;74.00
4584;DHT22;2304;47.606;12.186;2022-12-10T23:25:59;2.40;73.90
4584;DHT22;2304;47.606;12.186;2022-12-10T23:31:01;2.40;74.00
4584;DHT22;2304;47.606;12.186;2022-12-10T23:36:04;2.40;73.80
4584;DHT22;2304;47.606;12.186;2022-12-10T23:41:09;2.30;73.60
4584;DHT22;2304;47.606;12.186;2022-12-10T23:46:12;2.30;73.70
4584;DHT22;2304;47.606;12.186;2022-12-10T23:51:14;2.30;74.00
4584;DHT22;2304;47.606;12.186;2022-12-10T23:56:19;2.30;73.80
